createdAt,value
2016-10-31T00:00:07.226Z,1010.78
2016-10-31T00:01:17.532Z,1010.76
2016-10-31T00:02:27.195Z,1010.74
2016-10-31T00:03:37.465Z,1010.75
2016-10-31T00:04:47.444Z,1010.79
2016-10-31T00:05:57.117Z,1010.79
2016-10-31T00:07:06.795Z,1010.78
2016-10-31T00:08:16.823Z,1010.76
2016-10-31T00:09:27.149Z,1010.78
2016-10-31T00:10:37.165Z,1010.79
2016-10-31T00:11:46.506Z,1010.79
2016-10-31T00:12:56.513Z,1010.79
2016-10-31T00:14:06.782Z,1010.8
2016-10-31T00:15:16.455Z,1010.8
2016-10-31T00:16:26.417Z,1010.8
2016-10-31T00:17:36.404Z,1010.82
2016-10-31T00:18:46.087Z,1010.84
2016-10-31T00:19:55.782Z,1010.83
2016-10-31T00:21:05.785Z,1010.81
2016-10-31T00:22:15.807Z,1010.84
2016-10-31T00:23:25.769Z,1010.82
2016-10-31T00:24:35.745Z,1010.81
2016-10-31T00:25:46.046Z,1010.76
2016-10-31T00:26:56.029Z,1010.77
2016-10-31T00:28:06.008Z,1010.76
2016-10-31T00:29:16.295Z,1010.82
2016-10-31T00:30:25.962Z,1010.85
2016-10-31T00:31:36.246Z,1010.82
2016-10-31T00:32:46.223Z,1010.81
2016-10-31T00:33:56.517Z,1010.77
2016-10-31T00:35:06.794Z,1010.81
2016-10-31T00:36:16.456Z,1010.81
2016-10-31T00:37:26.759Z,1010.79
2016-10-31T00:38:37.040Z,1010.79
2016-10-31T00:39:47.331Z,1010.77
2016-10-31T00:40:57.008Z,1010.73
2016-10-31T00:42:06.976Z,1010.75
2016-10-31T00:43:17.258Z,1010.76
2016-10-31T00:44:27.239Z,1010.74
2016-10-31T00:45:37.524Z,1010.82
2016-10-31T00:46:47.812Z,1010.78
2016-10-31T00:47:58.129Z,1010.82
2016-10-31T00:49:08.455Z,1010.79
2016-10-31T00:50:18.733Z,1010.77
2016-10-31T00:51:28.708Z,1010.77
2016-10-31T00:52:38.379Z,1010.77
2016-10-31T00:53:48.361Z,1010.77
2016-10-31T00:54:58.660Z,1010.72
2016-10-31T00:56:08.373Z,1010.75
2016-10-31T00:57:18.365Z,1010.76
2016-10-31T00:58:28.664Z,1010.74
2016-10-31T00:59:38.940Z,1010.71
2016-10-31T01:00:48.906Z,1010.72
2016-10-31T01:01:59.193Z,1010.69
2016-10-31T01:03:09.484Z,1010.71
2016-10-31T01:04:19.501Z,1010.71
2016-10-31T01:05:29.824Z,1010.68
2016-10-31T01:06:40.156Z,1010.71
2016-10-31T01:07:50.463Z,1010.74
2016-10-31T01:09:00.449Z,1010.66
2016-10-31T01:10:10.410Z,1010.7
2016-10-31T01:11:20.687Z,1010.64
2016-10-31T01:12:30.654Z,1010.66
2016-10-31T01:13:40.945Z,1010.66
2016-10-31T01:14:51.226Z,1010.66
2016-10-31T01:16:01.509Z,1010.71
2016-10-31T01:17:11.806Z,1010.69
2016-10-31T01:18:22.087Z,1010.68
2016-10-31T01:19:32.065Z,1010.69
2016-10-31T01:20:42.350Z,1010.69
2016-10-31T01:21:52.637Z,1010.65
2016-10-31T01:23:02.290Z,1010.61
2016-10-31T01:24:12.255Z,1010.63
2016-10-31T01:25:22.236Z,1010.67
2016-10-31T01:26:32.561Z,1010.68
2016-10-31T01:27:42.596Z,1010.69
2016-10-31T01:28:52.571Z,1010.68
2016-10-31T01:30:02.238Z,1010.66
2016-10-31T01:31:11.911Z,1010.66
2016-10-31T01:32:21.582Z,1010.67
2016-10-31T01:33:31.554Z,1010.66
2016-10-31T01:34:41.245Z,1010.7
2016-10-31T01:35:51.201Z,1010.66
2016-10-31T01:37:01.497Z,1010.7
2016-10-31T01:38:11.538Z,1010.69
2016-10-31T01:39:21.821Z,1010.65
2016-10-31T01:40:31.799Z,1010.67
2016-10-31T01:41:41.770Z,1010.65
2016-10-31T01:42:52.055Z,1010.61
2016-10-31T01:44:02.040Z,1010.58
2016-10-31T01:45:11.997Z,1010.58
2016-10-31T01:46:21.985Z,1010.6
2016-10-31T01:47:32.281Z,1010.62
2016-10-31T01:48:42.579Z,1010.62
2016-10-31T01:49:52.544Z,1010.6
2016-10-31T01:51:02.826Z,1010.59
2016-10-31T01:52:12.809Z,1010.59
2016-10-31T01:53:23.089Z,1010.58
2016-10-31T01:54:33.376Z,1010.57
2016-10-31T01:55:43.359Z,1010.57
2016-10-31T01:56:53.639Z,1010.56
2016-10-31T01:58:03.970Z,1010.56
2016-10-31T01:59:14.246Z,1010.59
2016-10-31T02:00:23.933Z,1010.59
2016-10-31T02:01:33.904Z,1010.61
2016-10-31T02:02:44.192Z,1010.6
2016-10-31T02:03:54.472Z,1010.66
2016-10-31T02:05:04.786Z,1010.61
2016-10-31T02:06:14.755Z,1010.6
2016-10-31T02:07:25.047Z,1010.61
2016-10-31T02:08:35.018Z,1010.6
2016-10-31T02:09:44.672Z,1010.63
2016-10-31T02:10:54.672Z,1010.61
2016-10-31T02:12:04.645Z,1010.65
2016-10-31T02:13:14.930Z,1010.65
2016-10-31T02:14:25.207Z,1010.69
2016-10-31T02:15:34.877Z,1010.68
2016-10-31T02:16:45.207Z,1010.72
2016-10-31T02:17:55.180Z,1010.69
2016-10-31T02:19:05.532Z,1010.67
2016-10-31T02:20:15.544Z,1010.66
2016-10-31T02:21:25.576Z,1010.63
2016-10-31T02:22:35.563Z,1010.62
2016-10-31T02:23:45.554Z,1010.63
2016-10-31T02:24:55.538Z,1010.71
2016-10-31T02:26:05.819Z,1010.68
2016-10-31T02:27:15.795Z,1010.67
2016-10-31T02:28:26.077Z,1010.65
2016-10-31T02:29:36.362Z,1010.66
2016-10-31T02:30:46.350Z,1010.65
2016-10-31T02:31:55.698Z,1010.64
2016-10-31T02:33:05.673Z,1010.62
2016-10-31T02:34:15.646Z,1010.66
2016-10-31T02:35:25.649Z,1010.65
2016-10-31T02:36:35.619Z,1010.63
2016-10-31T02:37:45.601Z,1010.65
2016-10-31T02:38:55.874Z,1010.64
2016-10-31T02:40:05.869Z,1010.64
2016-10-31T02:41:15.852Z,1010.68
2016-10-31T02:42:26.148Z,1010.7
2016-10-31T02:43:36.117Z,1010.65
2016-10-31T02:44:46.422Z,1010.58
2016-10-31T02:45:56.698Z,1010.59
2016-10-31T02:47:06.371Z,1010.53
2016-10-31T02:48:16.682Z,1010.45
2016-10-31T02:49:26.664Z,1010.44
2016-10-31T02:50:36.626Z,1010.5
2016-10-31T02:51:46.909Z,1010.48
2016-10-31T02:52:57.189Z,1010.48
2016-10-31T02:54:07.467Z,1010.45
2016-10-31T02:55:17.439Z,1010.4
2016-10-31T02:56:27.727Z,1010.44
2016-10-31T02:57:37.696Z,1010.47
2016-10-31T02:58:47.673Z,1010.5
2016-10-31T02:59:57.652Z,1010.53
2016-10-31T03:01:07.646Z,1010.51
2016-10-31T03:32:30.369Z,1010.43
2016-10-31T03:33:40.326Z,1010.45
2016-10-31T03:34:50.291Z,1010.43
2016-10-31T03:36:00.564Z,1010.4
2016-10-31T03:37:10.536Z,1010.46
2016-10-31T03:38:20.531Z,1010.49
2016-10-31T03:39:30.507Z,1010.44
2016-10-31T03:40:40.473Z,1010.48
2016-10-31T03:41:49.835Z,1010.46
2016-10-31T03:42:59.795Z,1010.44
2016-10-31T03:44:09.757Z,1010.42
2016-10-31T03:45:20.029Z,1010.36
2016-10-31T03:46:30.046Z,1010.42
2016-10-31T03:47:40.017Z,1010.49
2016-10-31T03:48:50.288Z,1010.49
2016-10-31T03:50:00.271Z,1010.45
2016-10-31T03:51:10.559Z,1010.5
2016-10-31T03:52:20.864Z,1010.46
2016-10-31T03:53:30.846Z,1010.5
2016-10-31T03:54:41.148Z,1010.47
2016-10-31T03:55:51.435Z,1010.53
2016-10-31T03:57:01.706Z,1010.62
2016-10-31T03:58:11.984Z,1010.57
2016-10-31T03:59:21.961Z,1010.67
2016-10-31T04:00:32.263Z,1010.66
2016-10-31T04:01:42.549Z,1010.69
2016-10-31T04:02:52.822Z,1010.68
2016-10-31T04:04:02.822Z,1010.66
2016-10-31T04:05:13.109Z,1010.68
2016-10-31T04:06:22.773Z,1010.65
2016-10-31T04:07:32.797Z,1010.67
2016-10-31T04:08:42.799Z,1010.68
2016-10-31T04:09:53.082Z,1010.67
2016-10-31T04:11:03.378Z,1010.65
2016-10-31T04:12:13.666Z,1010.65
2016-10-31T04:13:23.633Z,1010.64
2016-10-31T04:14:33.602Z,1010.61
2016-10-31T04:15:43.882Z,1010.63
2016-10-31T04:16:53.887Z,1010.67
2016-10-31T04:18:03.869Z,1010.69
2016-10-31T04:19:14.195Z,1010.66
2016-10-31T04:20:24.199Z,1010.66
2016-10-31T04:21:34.188Z,1010.72
2016-10-31T04:22:44.162Z,1010.68
2016-10-31T04:23:53.827Z,1010.63
2016-10-31T04:25:03.808Z,1010.6
2016-10-31T04:26:13.790Z,1010.63
2016-10-31T04:27:24.093Z,1010.59
2016-10-31T04:28:33.765Z,1010.69
2016-10-31T04:29:44.050Z,1010.69
2016-10-31T04:30:54.022Z,1010.67
2016-10-31T04:32:04.311Z,1010.68
2016-10-31T04:33:14.627Z,1010.63
2016-10-31T04:34:24.912Z,1010.66
2016-10-31T04:35:34.584Z,1010.61
2016-10-31T04:36:44.561Z,1010.62
2016-10-31T04:37:54.891Z,1010.57
2016-10-31T04:39:05.174Z,1010.57
2016-10-31T04:40:15.136Z,1010.62
2016-10-31T04:41:24.499Z,1010.6
2016-10-31T04:42:34.776Z,1010.62
2016-10-31T04:43:44.747Z,1010.62
2016-10-31T04:44:54.728Z,1010.63
2016-10-31T04:46:05.039Z,1010.66
2016-10-31T04:47:15.329Z,1010.64
2016-10-31T04:48:25.619Z,1010.64
2016-10-31T04:49:35.586Z,1010.61
2016-10-31T04:50:45.862Z,1010.62
2016-10-31T04:51:55.887Z,1010.58
2016-10-31T04:53:06.166Z,1010.57
2016-10-31T04:54:15.822Z,1010.55
2016-10-31T04:55:26.089Z,1010.57
2016-10-31T04:56:36.390Z,1010.61
2016-10-31T04:57:46.668Z,1010.61
2016-10-31T04:58:56.644Z,1010.63
2016-10-31T05:00:06.946Z,1010.64
2016-10-31T05:01:17.276Z,1010.67
2016-10-31T05:02:26.939Z,1010.61
2016-10-31T05:03:36.921Z,1010.66
2016-10-31T05:04:47.198Z,1010.67
2016-10-31T05:05:57.216Z,1010.63
2016-10-31T05:07:07.186Z,1010.66
2016-10-31T05:08:17.463Z,1010.64
2016-10-31T05:09:27.350Z,1010.69
2016-10-31T05:10:37.641Z,1010.61
2016-10-31T05:11:47.626Z,1010.59
2016-10-31T05:12:57.945Z,1010.58
2016-10-31T05:14:07.920Z,1010.61
2016-10-31T05:15:17.905Z,1010.64
2016-10-31T05:16:28.185Z,1010.65
2016-10-31T05:17:38.452Z,1010.64
2016-10-31T05:18:48.729Z,1010.6
2016-10-31T05:19:58.735Z,1010.62
2016-10-31T05:21:09.031Z,1010.71
2016-10-31T05:22:19.012Z,1010.64
2016-10-31T05:23:29.300Z,1010.62
2016-10-31T05:24:39.272Z,1010.68
2016-10-31T05:25:48.943Z,1010.65
2016-10-31T05:26:59.227Z,1010.67
2016-10-31T05:28:09.507Z,1010.65
2016-10-31T05:29:19.518Z,1010.67
2016-10-31T05:30:29.810Z,1010.7
2016-10-31T05:31:39.488Z,1010.69
2016-10-31T05:32:49.498Z,1010.71
2016-10-31T05:33:59.777Z,1010.74
2016-10-31T05:35:09.807Z,1010.75
2016-10-31T05:36:20.084Z,1010.78
2016-10-31T05:37:29.745Z,1010.81
2016-10-31T05:38:39.718Z,1010.82
2016-10-31T05:39:49.684Z,1010.87
2016-10-31T05:41:00.014Z,1010.9
2016-10-31T05:42:10.301Z,1010.9
2016-10-31T05:43:20.584Z,1010.92
2016-10-31T05:44:30.285Z,1010.91
2016-10-31T05:45:40.567Z,1010.93
2016-10-31T05:46:50.300Z,1010.92
2016-10-31T05:48:00.586Z,1010.96
2016-10-31T05:49:10.851Z,1010.98
2016-10-31T05:50:21.138Z,1011
2016-10-31T05:51:30.800Z,1011.03
2016-10-31T05:52:40.781Z,1011.03
2016-10-31T05:53:51.058Z,1011.06
2016-10-31T05:55:01.325Z,1011.11
2016-10-31T05:56:11.601Z,1011.07
2016-10-31T05:57:21.888Z,1011.11
2016-10-31T05:58:31.567Z,1011.11
2016-10-31T05:59:41.847Z,1011.1
2016-10-31T06:00:52.154Z,1011.09
2016-10-31T06:02:02.426Z,1011.09
2016-10-31T06:03:12.703Z,1011.14
2016-10-31T06:04:22.983Z,1011.12
2016-10-31T06:05:32.961Z,1011.1
2016-10-31T06:06:43.246Z,1011.12
2016-10-31T06:07:53.290Z,1011.1
2016-10-31T06:09:03.561Z,1011.12
2016-10-31T06:10:13.837Z,1011.07
2016-10-31T06:11:23.834Z,1011.11
2016-10-31T06:12:33.512Z,1011.14
2016-10-31T06:13:43.783Z,1011.13
2016-10-31T06:14:54.064Z,1011.13
2016-10-31T06:16:04.352Z,1011.11
2016-10-31T06:17:14.353Z,1011.18
2016-10-31T06:18:24.033Z,1011.16
2016-10-31T06:19:34.026Z,1011.21
2016-10-31T06:20:43.994Z,1011.19
2016-10-31T06:21:54.280Z,1011.21
2016-10-31T06:23:04.563Z,1011.23
2016-10-31T06:24:14.846Z,1011.24
2016-10-31T06:25:25.131Z,1011.26
2016-10-31T06:26:35.092Z,1011.32
2016-10-31T06:27:45.388Z,1011.36
2016-10-31T06:28:55.384Z,1011.33
2016-10-31T06:30:05.370Z,1011.38
2016-10-31T06:31:15.057Z,1011.37
2016-10-31T06:32:25.348Z,1011.37
2016-10-31T06:33:35.315Z,1011.36
2016-10-31T06:34:45.296Z,1011.35
2016-10-31T06:35:55.580Z,1011.39
2016-10-31T06:37:05.860Z,1011.38
2016-10-31T06:38:16.166Z,1011.41
2016-10-31T06:39:26.463Z,1011.44
2016-10-31T06:40:36.739Z,1011.44
2016-10-31T06:41:47.026Z,1011.43
2016-10-31T06:42:57.368Z,1011.45
2016-10-31T06:44:07.630Z,1011.45
2016-10-31T06:45:17.613Z,1011.47
2016-10-31T06:46:27.932Z,1011.46
2016-10-31T06:47:38.234Z,1011.51
2016-10-31T06:48:48.540Z,1011.5
2016-10-31T06:49:58.528Z,1011.49
2016-10-31T06:51:08.503Z,1011.49
2016-10-31T06:52:18.799Z,1011.54
2016-10-31T06:53:29.083Z,1011.53
2016-10-31T06:54:39.063Z,1011.54
2016-10-31T06:55:49.351Z,1011.5
2016-10-31T06:56:59.357Z,1011.54
2016-10-31T06:58:09.640Z,1011.51
2016-10-31T06:59:19.961Z,1011.54
2016-10-31T07:00:30.227Z,1011.54
2016-10-31T07:01:39.899Z,1011.53
2016-10-31T07:02:49.894Z,1011.49
2016-10-31T07:04:00.158Z,1011.49
2016-10-31T07:05:10.458Z,1011.52
2016-10-31T07:06:20.796Z,1011.53
2016-10-31T07:07:30.759Z,1011.52
2016-10-31T07:08:41.050Z,1011.57
2016-10-31T07:09:51.332Z,1011.48
2016-10-31T07:11:01.628Z,1011.53
2016-10-31T07:12:11.618Z,1011.56
2016-10-31T07:13:21.916Z,1011.56
2016-10-31T07:14:32.198Z,1011.58
2016-10-31T07:15:42.518Z,1011.55
2016-10-31T07:16:52.801Z,1011.58
2016-10-31T07:18:03.078Z,1011.57
2016-10-31T07:19:13.361Z,1011.6
2016-10-31T07:20:23.655Z,1011.61
2016-10-31T07:21:33.942Z,1011.65
2016-10-31T07:22:44.221Z,1011.6
2016-10-31T07:23:54.512Z,1011.62
2016-10-31T07:25:04.803Z,1011.58
2016-10-31T07:26:15.099Z,1011.62
2016-10-31T07:27:25.406Z,1011.6
2016-10-31T07:28:35.694Z,1011.58
2016-10-31T07:29:45.980Z,1011.6
2016-10-31T07:30:55.972Z,1011.62
2016-10-31T07:32:05.934Z,1011.61
2016-10-31T07:33:16.249Z,1011.56
2016-10-31T07:34:26.247Z,1011.61
2016-10-31T07:35:36.556Z,1011.63
2016-10-31T07:36:46.851Z,1011.56
2016-10-31T07:37:57.135Z,1011.58
2016-10-31T07:39:07.422Z,1011.63
2016-10-31T07:40:17.385Z,1011.63
2016-10-31T07:41:27.392Z,1011.61
2016-10-31T07:42:37.673Z,1011.65
2016-10-31T07:43:47.350Z,1011.6
2016-10-31T07:44:57.341Z,1011.57
2016-10-31T07:46:07.323Z,1011.59
2016-10-31T07:47:16.994Z,1011.53
2016-10-31T07:48:27.281Z,1011.55
2016-10-31T07:49:37.560Z,1011.52
2016-10-31T07:50:47.539Z,1011.51
2016-10-31T07:51:57.847Z,1011.54
2016-10-31T07:53:07.826Z,1011.53
2016-10-31T07:54:18.155Z,1011.51
2016-10-31T07:55:28.436Z,1011.48
2016-10-31T07:56:38.766Z,1011.5
2016-10-31T07:57:48.782Z,1011.51
2016-10-31T07:58:59.072Z,1011.48
2016-10-31T08:00:09.044Z,1011.51
2016-10-31T08:01:19.022Z,1011.51
2016-10-31T08:02:29.305Z,1011.59
2016-10-31T08:03:39.009Z,1011.58
2016-10-31T08:04:49.309Z,1011.56
2016-10-31T08:05:59.700Z,1011.58
2016-10-31T08:07:09.769Z,1011.63
2016-10-31T08:08:20.051Z,1011.64
2016-10-31T08:09:30.361Z,1011.63
2016-10-31T08:10:40.333Z,1011.65
2016-10-31T08:11:50.301Z,1011.63
2016-10-31T08:13:00.577Z,1011.63
2016-10-31T08:14:10.248Z,1011.7
2016-10-31T08:15:20.539Z,1011.71
2016-10-31T08:16:30.826Z,1011.69
2016-10-31T08:17:41.128Z,1011.68
2016-10-31T08:18:51.429Z,1011.66
2016-10-31T08:20:01.397Z,1011.69
2016-10-31T08:21:11.683Z,1011.75
2016-10-31T08:22:21.680Z,1011.74
2016-10-31T08:23:31.994Z,1011.73
2016-10-31T08:24:41.973Z,1011.76
2016-10-31T08:25:52.271Z,1011.76
2016-10-31T08:27:02.553Z,1011.78
2016-10-31T08:28:12.819Z,1011.72
2016-10-31T08:29:23.105Z,1011.74
2016-10-31T08:30:33.072Z,1011.75
2016-10-31T08:31:43.044Z,1011.77
2016-10-31T08:32:53.025Z,1011.79
2016-10-31T08:34:03.303Z,1011.78
2016-10-31T08:35:13.278Z,1011.82
2016-10-31T08:36:23.614Z,1011.77
2016-10-31T08:37:33.901Z,1011.72
2016-10-31T08:38:43.594Z,1011.7
2016-10-31T08:39:53.880Z,1011.7
2016-10-31T08:41:04.158Z,1011.69
2016-10-31T08:42:14.140Z,1011.7
2016-10-31T08:43:24.120Z,1011.66
2016-10-31T08:44:34.087Z,1011.69
2016-10-31T08:45:44.075Z,1011.65
2016-10-31T08:46:54.056Z,1011.73
2016-10-31T08:48:04.354Z,1011.67
2016-10-31T08:49:14.656Z,1011.64
2016-10-31T08:50:24.935Z,1011.7
2016-10-31T08:51:34.907Z,1011.67
2016-10-31T08:52:45.208Z,1011.63
2016-10-31T08:53:54.891Z,1011.65
2016-10-31T08:55:04.907Z,1011.64
2016-10-31T08:56:15.209Z,1011.65
2016-10-31T08:57:25.207Z,1011.65
2016-10-31T08:58:35.494Z,1011.68
2016-10-31T08:59:45.493Z,1011.66
2016-10-31T09:00:55.797Z,1011.61
2016-10-31T09:02:06.089Z,1011.63
2016-10-31T09:03:16.381Z,1011.59
2016-10-31T09:04:26.682Z,1011.62
2016-10-31T09:05:36.688Z,1011.64
2016-10-31T09:06:46.360Z,1011.61
2016-10-31T09:07:56.653Z,1011.59
2016-10-31T09:09:06.327Z,1011.63
2016-10-31T09:10:16.325Z,1011.6
2016-10-31T09:11:26.661Z,1011.61
2016-10-31T09:12:36.964Z,1011.58
2016-10-31T09:13:47.259Z,1011.63
2016-10-31T09:14:57.251Z,1011.56
2016-10-31T09:16:07.542Z,1011.55
2016-10-31T09:17:17.820Z,1011.56
2016-10-31T09:18:28.151Z,1011.58
2016-10-31T09:19:38.443Z,1011.62
2016-10-31T09:20:48.758Z,1011.55
2016-10-31T09:21:59.071Z,1011.54
2016-10-31T09:23:09.412Z,1011.51
2016-10-31T09:24:19.078Z,1011.49
2016-10-31T09:25:29.412Z,1011.46
2016-10-31T09:26:39.713Z,1011.45
2016-10-31T09:27:50.010Z,1011.46
2016-10-31T09:29:00.310Z,1011.39
2016-10-31T09:30:10.303Z,1011.37
2016-10-31T09:31:20.589Z,1011.34
2016-10-31T09:32:30.890Z,1011.26
2016-10-31T09:33:41.172Z,1011.33
2016-10-31T09:34:51.479Z,1011.28
2016-10-31T09:36:01.810Z,1011.28
2016-10-31T09:37:12.111Z,1011.29
2016-10-31T09:38:22.415Z,1011.3
2016-10-31T09:39:31.780Z,1011.3
2016-10-31T09:40:42.083Z,1011.24
2016-10-31T09:41:52.363Z,1011.25
2016-10-31T09:43:02.676Z,1011.25
2016-10-31T09:44:12.652Z,1011.23
2016-10-31T09:45:22.939Z,1011.19
2016-10-31T09:46:33.275Z,1011.16
2016-10-31T09:47:43.575Z,1011.13
2016-10-31T09:48:53.238Z,1011.18
2016-10-31T09:50:03.211Z,1011.1
2016-10-31T09:51:13.502Z,1011.09
2016-10-31T09:52:23.782Z,1011.08
2016-10-31T09:53:34.083Z,1011.03
2016-10-31T09:54:43.762Z,1010.98
2016-10-31T09:55:54.057Z,1011.03
2016-10-31T09:57:04.039Z,1010.94
2016-10-31T09:58:13.726Z,1010.96
2016-10-31T09:59:24.007Z,1010.91
2016-10-31T10:00:34.303Z,1010.93
2016-10-31T10:01:44.609Z,1010.93
2016-10-31T10:02:54.599Z,1010.86
2016-10-31T10:04:04.903Z,1010.85
2016-10-31T10:05:14.575Z,1010.8
2016-10-31T10:06:24.247Z,1010.87
2016-10-31T10:07:34.238Z,1010.89
2016-10-31T10:08:44.211Z,1010.85
2016-10-31T10:09:54.508Z,1010.83
2016-10-31T10:11:04.818Z,1010.8
2016-10-31T10:12:14.815Z,1010.73
2016-10-31T10:13:24.817Z,1010.76
2016-10-31T10:14:34.808Z,1010.75
2016-10-31T10:15:45.102Z,1010.8
2016-10-31T10:16:55.394Z,1010.78
2016-10-31T10:18:05.694Z,1010.75
2016-10-31T10:19:16.018Z,1010.75
2016-10-31T10:20:26.320Z,1010.69
2016-10-31T10:21:36.295Z,1010.73
2016-10-31T10:22:46.576Z,1010.68
2016-10-31T10:23:56.874Z,1010.65
2016-10-31T10:25:07.179Z,1010.64
2016-10-31T10:26:17.176Z,1010.65
2016-10-31T10:27:27.468Z,1010.63
2016-10-31T10:28:37.765Z,1010.6
2016-10-31T10:29:48.072Z,1010.64
2016-10-31T10:30:58.358Z,1010.57
2016-10-31T10:32:08.644Z,1010.57
2016-10-31T10:33:18.628Z,1010.64
2016-10-31T10:34:28.949Z,1010.63
2016-10-31T10:35:38.966Z,1010.66
2016-10-31T10:36:48.622Z,1010.66
2016-10-31T10:37:58.947Z,1010.61
2016-10-31T10:39:09.241Z,1010.67
2016-10-31T10:40:19.533Z,1010.64
2016-10-31T10:41:29.820Z,1010.6
2016-10-31T10:42:39.796Z,1010.61
2016-10-31T10:43:50.087Z,1010.69
2016-10-31T10:45:00.364Z,1010.65
2016-10-31T10:46:10.046Z,1010.54
2016-10-31T10:47:20.064Z,1010.63
2016-10-31T10:48:30.099Z,1010.58
2016-10-31T10:49:40.120Z,1010.59
2016-10-31T10:50:50.160Z,1010.57
2016-10-31T10:51:59.835Z,1010.56
2016-10-31T10:53:10.188Z,1010.5
2016-10-31T10:54:20.497Z,1010.48
2016-10-31T10:55:30.793Z,1010.46
2016-10-31T10:56:41.096Z,1010.49
2016-10-31T10:57:51.399Z,1010.49
2016-10-31T10:59:01.720Z,1010.48
2016-10-31T11:00:12.021Z,1010.41
2016-10-31T11:01:22.326Z,1010.43
2016-10-31T11:02:32.358Z,1010.4
2016-10-31T11:03:42.343Z,1010.37
2016-10-31T11:04:52.650Z,1010.32
2016-10-31T11:06:02.957Z,1010.32
2016-10-31T11:07:13.233Z,1010.36
2016-10-31T11:08:23.544Z,1010.35
2016-10-31T11:09:33.511Z,1010.38
2016-10-31T11:10:43.801Z,1010.34
2016-10-31T11:11:54.112Z,1010.33
2016-10-31T11:13:04.107Z,1010.29
2016-10-31T11:14:14.390Z,1010.31
2016-10-31T11:15:24.676Z,1010.34
2016-10-31T11:16:34.968Z,1010.33
2016-10-31T11:17:45.263Z,1010.27
2016-10-31T11:18:55.600Z,1010.31
2016-10-31T11:20:05.601Z,1010.31
2016-10-31T11:21:15.929Z,1010.32
2016-10-31T11:22:26.219Z,1010.26
2016-10-31T11:23:36.526Z,1010.25
2016-10-31T11:24:46.829Z,1010.25
2016-10-31T11:25:56.822Z,1010.29
2016-10-31T11:27:07.121Z,1010.27
2016-10-31T11:28:17.105Z,1010.23
2016-10-31T11:29:27.414Z,1010.26
2016-10-31T11:30:37.720Z,1010.28
2016-10-31T11:31:48.020Z,1010.31
2016-10-31T11:32:57.396Z,1010.24
2016-10-31T11:34:07.384Z,1010.27
2016-10-31T11:35:17.774Z,1010.26
2016-10-31T11:36:28.065Z,1010.3
2016-10-31T11:37:38.066Z,1010.23
2016-10-31T11:38:48.044Z,1010.29
2016-10-31T11:39:58.023Z,1010.27
2016-10-31T11:41:08.350Z,1010.34
2016-10-31T11:42:18.649Z,1010.29
2016-10-31T11:43:28.968Z,1010.3
2016-10-31T11:44:39.268Z,1010.31
2016-10-31T11:45:49.566Z,1010.24
2016-10-31T11:46:59.867Z,1010.25
2016-10-31T11:48:09.552Z,1010.23
2016-10-31T11:49:20.161Z,1010.22
2016-10-31T11:50:30.254Z,1010.25
2016-10-31T11:51:40.651Z,1010.26
2016-10-31T11:52:51.004Z,1010.21
2016-10-31T11:54:01.064Z,1010.26
2016-10-31T11:55:11.424Z,1010.19
2016-10-31T11:56:21.472Z,1010.17
2016-10-31T11:57:31.818Z,1010.22
2016-10-31T11:58:42.168Z,1010.19
2016-10-31T11:59:52.553Z,1010.24
2016-10-31T12:01:02.662Z,1010.2
2016-10-31T12:02:12.738Z,1010.19
2016-10-31T12:03:23.093Z,1010.2
2016-10-31T12:04:33.453Z,1010.15
2016-10-31T12:05:43.820Z,1010.19
2016-10-31T12:06:54.204Z,1010.15
2016-10-31T12:08:04.627Z,1010.12
2016-10-31T12:09:14.637Z,1010.1
2016-10-31T12:10:25.024Z,1010.12
2016-10-31T12:11:35.397Z,1010.07
2016-10-31T12:12:45.756Z,1010.06
2016-10-31T12:13:56.085Z,1010
2016-10-31T12:15:06.146Z,1010
2016-10-31T12:16:16.505Z,1009.99
2016-10-31T12:17:26.901Z,1009.97
2016-10-31T12:18:37.272Z,1009.97
2016-10-31T12:19:47.648Z,1009.95
2016-10-31T12:20:58.005Z,1009.95
2016-10-31T12:22:08.333Z,1009.89
2016-10-31T12:23:18.676Z,1009.87
2016-10-31T12:24:29.033Z,1009.83
2016-10-31T12:25:39.396Z,1009.79
2016-10-31T12:26:49.743Z,1009.8
2016-10-31T12:28:00.129Z,1009.81
2016-10-31T12:29:10.500Z,1009.77
2016-10-31T12:30:20.584Z,1009.73
2016-10-31T12:31:30.608Z,1009.75
2016-10-31T12:32:40.972Z,1009.71
2016-10-31T12:33:51.322Z,1009.68
2016-10-31T12:35:01.634Z,1009.72
2016-10-31T12:36:11.322Z,1009.68
2016-10-31T12:37:21.378Z,1009.66
2016-10-31T12:38:31.394Z,1009.66
2016-10-31T12:39:41.804Z,1009.62
2016-10-31T12:40:52.114Z,1009.67
2016-10-31T12:42:02.492Z,1009.57
2016-10-31T12:43:12.849Z,1009.63
2016-10-31T12:44:23.190Z,1009.6
2016-10-31T12:45:33.501Z,1009.66
2016-10-31T12:46:43.909Z,1009.52
2016-10-31T12:47:53.965Z,1009.51
2016-10-31T12:49:04.274Z,1009.5
2016-10-31T12:50:14.588Z,1009.43
2016-10-31T12:51:24.925Z,1009.43
2016-10-31T12:52:35.249Z,1009.51
2016-10-31T12:53:45.568Z,1009.47
2016-10-31T12:54:55.926Z,1009.45
2016-10-31T12:56:05.923Z,1009.44
2016-10-31T12:57:15.930Z,1009.41
2016-10-31T12:58:25.945Z,1009.41
2016-10-31T12:59:36.270Z,1009.39
2016-10-31T13:00:46.302Z,1009.37
2016-10-31T13:01:55.979Z,1009.35
2016-10-31T13:03:06.029Z,1009.4
2016-10-31T13:04:16.015Z,1009.37
2016-10-31T13:05:25.733Z,1009.37
2016-10-31T13:06:36.048Z,1009.32
2016-10-31T13:07:46.322Z,1009.32
2016-10-31T13:08:56.309Z,1009.33
2016-10-31T13:10:06.620Z,1009.36
2016-10-31T13:11:17.165Z,1009.35
2016-10-31T13:12:27.499Z,1009.33
2016-10-31T13:13:37.189Z,1009.31
2016-10-31T13:14:47.193Z,1009.3
2016-10-31T13:15:57.756Z,1009.35
2016-10-31T13:17:08.067Z,1009.32
2016-10-31T13:18:18.064Z,1009.33
2016-10-31T13:19:28.367Z,1009.33
2016-10-31T13:20:38.673Z,1009.32
2016-10-31T13:21:48.989Z,1009.34
2016-10-31T13:22:58.958Z,1009.3
2016-10-31T13:24:09.298Z,1009.3
2016-10-31T13:25:19.297Z,1009.27
2016-10-31T13:26:29.291Z,1009.26
2016-10-31T13:27:39.587Z,1009.22
2016-10-31T13:28:49.957Z,1009.21
2016-10-31T13:30:00.266Z,1009.19
2016-10-31T13:31:10.272Z,1009.23
2016-10-31T13:32:20.570Z,1009.23
2016-10-31T13:33:30.583Z,1009.17
2016-10-31T13:34:40.574Z,1009.22
2016-10-31T13:35:50.596Z,1009.2
2016-10-31T13:37:01.131Z,1009.21
2016-10-31T13:38:11.433Z,1009.12
2016-10-31T13:39:21.751Z,1009.13
2016-10-31T13:40:31.749Z,1009.13
2016-10-31T13:41:42.037Z,1009.1
2016-10-31T13:42:52.348Z,1009.1
2016-10-31T13:44:02.670Z,1009.03
2016-10-31T13:45:12.989Z,1008.97
2016-10-31T13:46:23.304Z,1008.98
2016-10-31T13:47:33.612Z,1008.96
2016-10-31T13:48:43.623Z,1008.95
2016-10-31T13:49:53.307Z,1008.88
2016-10-31T13:51:03.618Z,1008.87
2016-10-31T13:52:13.964Z,1008.8
2016-10-31T13:53:24.263Z,1008.75
2016-10-31T13:54:34.260Z,1008.72
2016-10-31T13:55:44.262Z,1008.61
2016-10-31T13:56:54.291Z,1008.6
2016-10-31T13:58:03.969Z,1008.57
2016-10-31T13:59:14.275Z,1008.51
2016-10-31T14:00:24.324Z,1008.52
2016-10-31T14:01:34.902Z,1008.42
2016-10-31T14:02:44.908Z,1008.37
2016-10-31T14:03:55.235Z,1008.39
2016-10-31T14:05:05.252Z,1008.34
2016-10-31T14:06:15.574Z,1008.35
2016-10-31T14:07:25.917Z,1008.36
2016-10-31T14:08:36.264Z,1008.32
2016-10-31T14:09:46.620Z,1008.29
2016-10-31T14:10:56.927Z,1008.26
2016-10-31T14:12:07.266Z,1008.25
2016-10-31T14:13:17.574Z,1008.23
2016-10-31T14:14:27.895Z,1008.19
2016-10-31T14:15:38.184Z,1008.16
2016-10-31T14:16:48.493Z,1008.15
2016-10-31T14:17:58.519Z,1008.15
2016-10-31T14:19:08.825Z,1008.1
2016-10-31T14:20:19.123Z,1008.08
2016-10-31T14:21:29.415Z,1008.04
2016-10-31T14:22:39.723Z,1008.06
2016-10-31T14:23:49.726Z,1008.08
2016-10-31T14:25:00.029Z,1008.01
2016-10-31T14:26:10.013Z,1008.04
2016-10-31T14:27:20.346Z,1008.01
2016-10-31T14:28:30.644Z,1007.95
2016-10-31T14:29:40.321Z,1007.95
2016-10-31T14:30:50.023Z,1007.95
2016-10-31T14:32:00.012Z,1007.94
2016-10-31T14:33:09.683Z,1007.93
2016-10-31T14:34:19.695Z,1007.91
2016-10-31T14:35:29.693Z,1007.88
2016-10-31T14:36:39.983Z,1007.84
2016-10-31T14:37:50.299Z,1007.86
2016-10-31T14:39:00.314Z,1007.89
2016-10-31T14:40:10.610Z,1007.86
2016-10-31T14:41:20.909Z,1007.88